createdAt,value
2022-12-24T00:02:51.536Z,100001.03
2022-12-24T00:06:54.562Z,100005.13
2022-12-24T00:10:57.619Z,100011.38
2022-12-24T00:15:00.536Z,100014.91
2022-12-24T00:19:05.020Z,100029.34
2022-12-24T00:23:08.941Z,100024.66
2022-12-24T00:27:11.692Z,100027.13
2022-12-24T00:31:17.115Z,100035.81
2022-12-24T00:35:21.947Z,100040.66
2022-12-24T00:39:25.149Z,100048.56
2022-12-24T00:43:28.119Z,100050.97
2022-12-24T00:47:31.089Z,100060.50
2022-12-24T00:51:36.265Z,100061.00
2022-12-24T00:55:39.431Z,100063.72
2022-12-24T00:59:42.419Z,100071.31
2022-12-24T01:03:45.524Z,100076.22
2022-12-24T01:07:50.736Z,100094.19
2022-12-24T01:11:54.518Z,100089.81
2022-12-24T01:15:57.565Z,100113.72
2022-12-24T01:20:00.508Z,100112.09
2022-12-24T01:24:04.892Z,100119.16
2022-12-24T01:28:07.761Z,100126.16
2022-12-24T01:32:10.756Z,100144.91
2022-12-24T01:36:14.879Z,100142.19
2022-12-24T01:40:37.762Z,100159.03
2022-12-24T01:44:43.001Z,100168.00
2022-12-24T01:48:50.526Z,100162.81
2022-12-24T01:52:53.360Z,100172.06
2022-12-24T01:57:02.258Z,100174.19
2022-12-24T02:01:06.025Z,100179.06
2022-12-24T02:05:15.306Z,100192.91
2022-12-24T02:09:18.756Z,100211.91
2022-12-24T02:13:23.050Z,100201.50
2022-12-24T02:17:32.668Z,100205.91
2022-12-24T02:21:59.600Z,100211.53
2022-12-24T02:26:26.276Z,100216.97
2022-12-24T02:30:38.019Z,100215.34
2022-12-24T02:34:49.164Z,100228.63
2022-12-24T02:39:01.334Z,100237.84
2022-12-24T02:43:10.857Z,100240.56
2022-12-24T02:47:20.284Z,100254.38
2022-12-24T02:51:25.232Z,100250.81
2022-12-24T02:55:41.678Z,100266.31
2022-12-24T03:00:01.199Z,100269.59
2022-12-24T03:04:15.898Z,100288.84
2022-12-24T03:08:33.627Z,100287.47
2022-12-24T03:12:40.990Z,100282.28
2022-12-24T03:16:45.918Z,100293.97
2022-12-24T03:20:55.678Z,100301.78
2022-12-24T03:24:58.638Z,100309.69
2022-12-24T03:29:05.164Z,100320.53
2022-12-24T03:33:08.075Z,100330.03
2022-12-24T03:37:12.954Z,100333.56
2022-12-24T03:41:16.295Z,100336.03
2022-12-24T03:45:19.466Z,100326.72
2022-12-24T03:49:22.505Z,100332.47
2022-12-24T03:53:27.363Z,100326.47
2022-12-24T03:57:30.302Z,100333.81
2022-12-24T04:01:33.460Z,100332.72
2022-12-24T04:05:36.608Z,100344.41
2022-12-24T04:09:41.477Z,100341.38
2022-12-24T04:13:44.563Z,100351.19
2022-12-24T04:17:47.427Z,100364.16
2022-12-24T04:21:51.398Z,100361.94
2022-12-24T04:25:55.709Z,100361.38
2022-12-24T04:29:58.786Z,100367.28
2022-12-24T04:34:01.633Z,100377.00
2022-12-24T04:38:04.967Z,100391.63
2022-12-24T04:42:10.892Z,100390.47
2022-12-24T04:46:18.035Z,100380.69
2022-12-24T04:50:20.924Z,100390.94
2022-12-24T04:54:23.921Z,100392.84
2022-12-24T04:58:28.950Z,100396.88
2022-12-24T05:02:31.905Z,100405.28
2022-12-24T05:06:35.274Z,100402.78
2022-12-24T05:10:38.192Z,100405.28
2022-12-24T05:14:43.036Z,100415.53
2022-12-24T05:18:47.041Z,100397.34
2022-12-24T05:23:07.810Z,100412.09
2022-12-24T05:27:10.968Z,100409.88
2022-12-24T05:31:15.375Z,100408.81
2022-12-24T05:35:19.782Z,100425.09
2022-12-24T05:39:22.774Z,100417.53
2022-12-24T05:43:25.676Z,100419.53
2022-12-24T05:47:30.218Z,100430.97
2022-12-24T05:51:33.244Z,100421.16
2022-12-24T05:55:36.444Z,100419.84
2022-12-24T05:59:39.527Z,100415.03
2022-12-24T06:03:44.061Z,100422.81
2022-12-24T06:07:47.068Z,100426.69
2022-12-24T06:11:50.087Z,100430.00
2022-12-24T06:15:55.874Z,100438.13
2022-12-24T06:20:00.049Z,100443.56
2022-12-24T06:24:03.103Z,100443.81
2022-12-24T06:28:06.455Z,100437.06
2022-12-24T06:32:09.352Z,100447.09
2022-12-24T06:36:18.147Z,100431.63
2022-12-24T06:40:21.447Z,100452.53
2022-12-24T06:44:24.538Z,100455.00
2022-12-24T06:48:27.547Z,100470.72
2022-12-24T06:52:31.780Z,100468.84
2022-12-24T06:56:34.739Z,100485.13
2022-12-24T07:00:37.649Z,100488.09
2022-12-24T07:04:40.679Z,100496.25
2022-12-24T07:08:46.045Z,100490.56
2022-12-24T07:12:50.314Z,100495.53
2022-12-24T07:16:58.918Z,100495.28
2022-12-24T07:21:04.906Z,100502.00
2022-12-24T07:25:11.554Z,100492.19
2022-12-24T07:29:14.576Z,100507.34
2022-12-24T07:33:17.672Z,100517.84
2022-12-24T07:37:20.631Z,100517.38
2022-12-24T07:41:24.969Z,100523.41
2022-12-24T07:45:28.828Z,100515.25
2022-12-24T07:49:31.822Z,100510.63
2022-12-24T07:53:34.799Z,100521.75
2022-12-24T07:57:39.152Z,100543.22
2022-12-24T08:01:42.437Z,100539.44
2022-12-24T08:05:46.443Z,100541.09
2022-12-24T08:09:49.842Z,100551.13
2022-12-24T08:13:54.260Z,100564.47
2022-12-24T08:17:57.359Z,100577.22
2022-12-24T08:22:00.370Z,100585.47
2022-12-24T08:26:03.535Z,100588.75
2022-12-24T08:30:09.224Z,100604.25
2022-12-24T08:34:12.693Z,100605.88
2022-12-24T08:38:16.625Z,100600.81
2022-12-24T08:42:19.800Z,100614.97
2022-12-24T08:46:24.351Z,100619.94
2022-12-24T08:50:28.340Z,100614.50
2022-12-24T08:54:31.409Z,100623.81
2022-12-24T08:58:34.564Z,100634.22
2022-12-24T09:02:39.087Z,100637.41
2022-12-24T09:06:42.187Z,100642.13
2022-12-24T09:10:45.515Z,100662.53
2022-12-24T09:14:48.915Z,100660.22
2022-12-24T09:18:53.486Z,100664.00
2022-12-24T09:22:56.331Z,100675.09
2022-12-24T09:26:59.358Z,100685.09
2022-12-24T09:31:04.211Z,100687.41
2022-12-24T09:35:09.087Z,100697.78
2022-12-24T09:39:12.011Z,100693.53
2022-12-24T09:43:19.007Z,100700.72
2022-12-24T09:47:27.533Z,100698.13
2022-12-24T09:51:37.161Z,100717.97
2022-12-24T09:55:45.355Z,100720.56
2022-12-24T09:59:49.098Z,100719.25
2022-12-24T10:03:53.485Z,100723.97
2022-12-24T10:08:07.973Z,100728.91
2022-12-24T10:12:20.156Z,100737.44
2022-12-24T10:16:30.233Z,100733.16
2022-12-24T10:20:43.185Z,100747.34
2022-12-24T10:24:55.990Z,100742.81
2022-12-24T10:29:03.873Z,100741.53
2022-12-24T10:33:20.866Z,100747.53
2022-12-24T10:37:47.786Z,100739.75
2022-12-24T10:42:07.435Z,100741.97
2022-12-24T10:46:19.824Z,100735.44
2022-12-24T10:50:33.817Z,100746.09
2022-12-24T10:54:39.887Z,100764.41
2022-12-24T10:58:46.514Z,100760.16
2022-12-24T11:03:06.333Z,100746.06
2022-12-24T11:07:20.299Z,100743.69
2022-12-24T11:11:23.529Z,100751.34
2022-12-24T11:15:32.835Z,100746.25
2022-12-24T11:19:40.094Z,100742.47
2022-12-24T11:23:51.436Z,100751.72
2022-12-24T11:27:54.830Z,100741.41
2022-12-24T11:32:17.310Z,100748.00
2022-12-24T11:36:23.810Z,100750.13
2022-12-24T11:40:34.673Z,100751.56
2022-12-24T11:44:49.500Z,100753.78
2022-12-24T11:49:08.339Z,100753.94
2022-12-24T11:53:20.047Z,100766.56
2022-12-24T11:57:27.718Z,100757.53
2022-12-24T12:01:35.355Z,100759.44
2022-12-24T12:05:40.011Z,100769.56
2022-12-24T12:09:45.414Z,100768.41
2022-12-24T12:13:49.306Z,100769.50
2022-12-24T12:18:04.998Z,100778.47
2022-12-24T12:22:19.978Z,100782.25
2022-12-24T12:26:26.215Z,100787.22
2022-12-24T12:30:31.751Z,100774.94
2022-12-24T12:34:41.022Z,100787.69
2022-12-24T12:38:46.506Z,100793.63
2022-12-24T12:43:00.692Z,100801.22
2022-12-24T12:47:23.805Z,100792.59
2022-12-24T12:51:39.100Z,100805.88
2022-12-24T12:55:53.324Z,100813.47
2022-12-24T13:00:02.411Z,100820.81
2022-12-24T13:04:36.064Z,100816.53
2022-12-24T13:08:59.984Z,100817.03
2022-12-24T13:13:24.456Z,100825.44
2022-12-24T13:18:07.632Z,100830.41
2022-12-24T13:22:17.205Z,100825.59
2022-12-24T13:26:20.113Z,100830.09
2022-12-24T13:30:38.331Z,100842.75
2022-12-24T13:34:48.005Z,100848.19
2022-12-24T13:38:51.768Z,100841.34
2022-12-24T13:43:12.206Z,100851.97
2022-12-24T13:47:31.676Z,100860.94
2022-12-24T13:51:35.832Z,100869.09
2022-12-24T13:55:52.342Z,100877.63
2022-12-24T14:00:00.820Z,100883.53
2022-12-24T14:04:09.302Z,100892.75
2022-12-24T14:08:16.626Z,100886.63
2022-12-24T14:12:48.854Z,100891.81
2022-12-24T14:16:53.708Z,100898.53
2022-12-24T14:21:00.213Z,100901.63
2022-12-24T14:25:08.391Z,100908.47
2022-12-24T14:29:24.951Z,100915.56
2022-12-24T14:33:32.208Z,100914.28
2022-12-24T14:37:36.976Z,100927.38
2022-12-24T14:41:50.687Z,100931.53
2022-12-24T14:46:03.181Z,100937.00
2022-12-24T14:50:31.387Z,100947.03
2022-12-24T14:54:41.232Z,100943.38
2022-12-24T14:58:44.818Z,100953.88
2022-12-24T15:02:49.282Z,100952.94
2022-12-24T15:06:57.606Z,100957.53
2022-12-24T15:11:05.092Z,100973.25
2022-12-24T15:15:15.503Z,100974.91
2022-12-24T15:19:25.651Z,100980.31
2022-12-24T15:23:31.690Z,100983.72
2022-12-24T15:27:40.325Z,100986.19
2022-12-24T15:31:43.808Z,100998.22
2022-12-24T15:35:53.465Z,100992.25
2022-12-24T15:40:09.945Z,101002.38
2022-12-24T15:44:17.091Z,101012.28
2022-12-24T15:48:24.537Z,101021.56
2022-12-24T15:52:27.939Z,101024.75
2022-12-24T15:56:37.587Z,101036.75
2022-12-24T16:00:42.396Z,101040.97
2022-12-24T16:04:45.639Z,101039.78
2022-12-24T16:08:50.938Z,101040.91
2022-12-24T16:12:54.033Z,101044.53
2022-12-24T16:16:59.151Z,101043.56
2022-12-24T16:21:02.826Z,101048.81
2022-12-24T16:25:25.356Z,101044.28
2022-12-24T16:29:28.353Z,101057.69
2022-12-24T16:33:33.665Z,101047.53
2022-12-24T16:37:38.706Z,101067.66
2022-12-24T16:42:00.655Z,101056.03
2022-12-24T16:46:06.654Z,101064.59
2022-12-24T16:50:16.953Z,101060.66
2022-12-24T16:54:20.923Z,101054.03
2022-12-24T16:58:24.798Z,101056.34
2022-12-24T17:02:27.800Z,101064.34
2022-12-24T17:06:32.315Z,101072.53
2022-12-24T17:10:36.096Z,101076.31
2022-12-24T17:14:39.833Z,101072.22
2022-12-24T17:18:42.702Z,101084.63
2022-12-24T17:22:47.547Z,101094.66
2022-12-24T17:26:50.590Z,101086.38
2022-12-24T17:30:53.548Z,101093.50
2022-12-24T17:34:56.616Z,101091.44
2022-12-24T17:39:01.550Z,101091.44
2022-12-24T17:43:05.707Z,101094.59
2022-12-24T17:47:09.473Z,101096.66
2022-12-24T17:51:15.184Z,101098.94
2022-12-24T17:55:23.666Z,101097.53
2022-12-24T17:59:27.131Z,101085.22
2022-12-24T18:03:36.322Z,101082.31
2022-12-24T18:07:40.171Z,101086.72
2022-12-24T18:11:45.820Z,101088.38
2022-12-24T18:15:49.158Z,101080.66
2022-12-24T18:19:52.747Z,101083.81
2022-12-24T18:23:56.654Z,101077.56
2022-12-24T18:28:01.465Z,101079.84
2022-12-24T18:32:04.450Z,101078.22
2022-12-24T18:36:08.555Z,101090.97
2022-12-24T18:40:12.712Z,101086.41
2022-12-24T18:44:24.302Z,101092.25
2022-12-24T18:48:28.047Z,101098.91
2022-12-24T18:52:32.391Z,101109.75
2022-12-24T18:56:35.572Z,101102.69
2022-12-24T19:00:39.846Z,101109.78
2022-12-24T19:04:43.335Z,101101.69
2022-12-24T19:08:56.983Z,101102.34
2022-12-24T19:13:01.005Z,101096.94
2022-12-24T19:17:05.415Z,101112.94
2022-12-24T19:21:10.072Z,101123.38
2022-12-24T19:25:13.041Z,101119.63
2022-12-24T19:29:16.749Z,101116.09
2022-12-24T19:33:21.672Z,101111.91
2022-12-24T19:37:24.876Z,101116.72
2022-12-24T19:41:29.865Z,101112.97
2022-12-24T19:45:33.970Z,101106.94
2022-12-24T19:49:38.241Z,101109.84
2022-12-24T19:53:41.331Z,101110.47
2022-12-24T19:57:45.336Z,101111.09
2022-12-24T20:02:13.744Z,101108.16
2022-12-24T20:06:19.999Z,101104.63
2022-12-24T20:10:23.169Z,101116.91
2022-12-24T20:14:26.799Z,101118.78
2022-12-24T20:18:30.742Z,101120.66
2022-12-24T20:22:35.113Z,101122.28
2022-12-24T20:26:40.106Z,101130.19
2022-12-24T20:30:43.141Z,101132.47
2022-12-24T20:34:46.761Z,101128.50
2022-12-24T20:38:52.003Z,101127.06
2022-12-24T20:42:55.082Z,101128.06
2022-12-24T20:46:59.977Z,101145.13
2022-12-24T20:51:07.511Z,101150.31
2022-12-24T20:55:11.950Z,101143.28
2022-12-24T20:59:15.393Z,101143.91
2022-12-24T21:03:33.642Z,101141.59
2022-12-24T21:07:48.292Z,101135.19
2022-12-24T21:12:24.237Z,101133.72
2022-12-24T21:16:39.076Z,101126.06
2022-12-24T21:20:49.020Z,101131.84
2022-12-24T21:24:52.056Z,101136.66
2022-12-24T21:28:56.700Z,101139.97
2022-12-24T21:32:59.818Z,101146.88
2022-12-24T21:37:03.405Z,101134.78
2022-12-24T21:41:10.717Z,101126.25
2022-12-24T21:45:15.149Z,101128.56
2022-12-24T21:49:35.800Z,101130.44
2022-12-24T21:53:56.613Z,101115.06
2022-12-24T21:58:00.019Z,101104.03
2022-12-24T22:02:26.595Z,101106.09
2022-12-24T22:06:47.676Z,101102.13
2022-12-24T22:11:08.465Z,101097.56
2022-12-24T22:15:12.152Z,101100.47
2022-12-24T22:19:18.329Z,101095.50
2022-12-24T22:23:21.461Z,101085.31
2022-12-24T22:27:24.581Z,101062.19
2022-12-24T22:31:27.565Z,101074.69
2022-12-24T22:35:32.066Z,101087.41
2022-12-24T22:39:35.643Z,101084.69
2022-12-24T22:43:38.844Z,101083.44
2022-12-24T22:47:41.967Z,101076.13
2022-12-24T22:51:46.302Z,101081.56
2022-12-24T22:55:56.179Z,101070.94
2022-12-24T22:59:59.856Z,101080.50
2022-12-24T23:04:10.391Z,101082.16
2022-12-24T23:08:15.199Z,101081.34
2022-12-24T23:12:38.494Z,101071.34
2022-12-24T23:16:43.546Z,101072.63
2022-12-24T23:20:46.532Z,101090.72
2022-12-24T23:24:50.831Z,101081.78
2022-12-24T23:28:54.341Z,101095.69
2022-12-24T23:32:57.293Z,101095.06
2022-12-24T23:37:00.326Z,101105.66
2022-12-24T23:41:07.029Z,101110.69
2022-12-24T23:45:10.922Z,101113.16
2022-12-24T23:49:14.947Z,101124.59
2022-12-24T23:53:19.791Z,101130.44
2022-12-24T23:57:24.617Z,101117.75
